createdAt,value
2017-08-09T00:00:58.253Z,87.85
2017-08-09T00:03:25.857Z,87.41
2017-08-09T00:05:53.506Z,87.36
2017-08-09T00:08:21.131Z,87.21
2017-08-09T00:10:48.771Z,86.87
2017-08-09T00:13:16.379Z,87.14
2017-08-09T00:15:44.057Z,87.19
2017-08-09T00:18:12.005Z,87.18
2017-08-09T00:20:39.616Z,86.77
2017-08-09T00:23:07.325Z,86.48
2017-08-09T00:25:34.967Z,86.35
2017-08-09T00:28:02.586Z,86.64
2017-08-09T00:30:30.485Z,86.70
2017-08-09T00:32:58.105Z,87.43
2017-08-09T00:35:25.730Z,87.38
2017-08-09T00:37:53.835Z,87.18
2017-08-09T00:40:21.459Z,87.34
2017-08-09T00:42:49.150Z,87.64
2017-08-09T00:45:16.758Z,87.29
2017-08-09T00:47:44.397Z,87.17
2017-08-09T00:50:11.986Z,87.10
2017-08-09T00:52:39.984Z,87.26
2017-08-09T00:55:07.609Z,87.86
2017-08-09T00:57:35.215Z,88.31
2017-08-09T01:00:02.838Z,88.50
2017-08-09T01:02:30.444Z,88.78
2017-08-09T01:04:58.367Z,88.90
2017-08-09T01:07:25.950Z,89.08
2017-08-09T01:09:53.548Z,88.90
2017-08-09T01:12:21.185Z,89.23
2017-08-09T01:14:48.780Z,89.06
2017-08-09T01:17:16.440Z,89.26
2017-08-09T01:19:44.047Z,89.56
2017-08-09T01:22:11.669Z,89.59
2017-08-09T01:24:39.307Z,89.07
2017-08-09T01:27:07.254Z,88.43
2017-08-09T01:29:34.864Z,88.40
2017-08-09T01:32:02.484Z,87.93
2017-08-09T01:34:30.270Z,87.42
2017-08-09T01:36:58.005Z,87.39
2017-08-09T01:39:25.698Z,88.03
2017-08-09T01:41:53.287Z,88.32
2017-08-09T01:44:20.945Z,88.83
2017-08-09T01:46:48.580Z,88.93
2017-08-09T01:49:16.474Z,88.86
2017-08-09T01:51:44.075Z,89.48
2017-08-09T01:54:11.695Z,90.01
2017-08-09T01:56:39.333Z,90.55
2017-08-09T01:59:06.960Z,90.68
2017-08-09T02:01:34.613Z,90.61
2017-08-09T02:04:02.281Z,90.47
2017-08-09T02:06:30.259Z,90.84
2017-08-09T02:08:57.859Z,91.10
2017-08-09T02:11:25.441Z,90.91
2017-08-09T02:13:53.066Z,90.82
2017-08-09T02:16:20.657Z,90.62
2017-08-09T02:18:48.288Z,90.40
2017-08-09T02:21:15.891Z,90.49
2017-08-09T02:23:43.507Z,90.04
2017-08-09T02:26:11.133Z,90.21
2017-08-09T02:28:39.107Z,90.26
2017-08-09T02:31:06.724Z,89.99
2017-08-09T02:33:34.326Z,90.02
2017-08-09T02:36:02.205Z,89.72
2017-08-09T02:38:29.816Z,89.64
2017-08-09T02:40:57.436Z,89.34
2017-08-09T02:43:25.029Z,89.19
2017-08-09T02:45:52.680Z,89.31
2017-08-09T02:48:20.274Z,89.47
2017-08-09T02:50:47.879Z,89.72
2017-08-09T02:53:15.748Z,89.80
2017-08-09T02:55:43.364Z,90.37
2017-08-09T02:58:11.009Z,90.68
2017-08-09T03:00:38.600Z,90.92
2017-08-09T03:03:06.601Z,90.61
2017-08-09T03:05:34.209Z,90.69
2017-08-09T03:08:01.804Z,90.98
2017-08-09T03:10:29.435Z,91.14
2017-08-09T03:12:57.033Z,91.19
2017-08-09T03:15:24.654Z,91.07
2017-08-09T03:17:52.361Z,91.03
2017-08-09T03:20:19.987Z,91.38
2017-08-09T03:22:47.612Z,91.57
2017-08-09T03:25:15.248Z,91.69
2017-08-09T03:27:43.764Z,91.67
2017-08-09T03:30:11.804Z,91.88
2017-08-09T03:32:39.420Z,92.04
2017-08-09T03:35:07.098Z,91.98
2017-08-09T03:37:34.773Z,91.79
2017-08-09T03:40:02.395Z,91.79
2017-08-09T03:42:30.034Z,91.64
2017-08-09T03:44:57.708Z,91.10
2017-08-09T03:47:25.762Z,91.10
2017-08-09T03:49:53.385Z,91.00
2017-08-09T03:52:21.037Z,90.75
2017-08-09T03:54:48.654Z,90.46
2017-08-09T03:57:16.302Z,90.52
2017-08-09T03:59:43.930Z,90.34
2017-08-09T04:02:11.648Z,90.46
2017-08-09T04:04:39.283Z,90.50
2017-08-09T04:07:06.895Z,90.69
2017-08-09T04:09:34.530Z,90.52
2017-08-09T04:12:02.679Z,90.96
2017-08-09T04:14:30.683Z,91.09
2017-08-09T04:16:58.546Z,91.39
2017-08-09T04:19:27.045Z,91.30
2017-08-09T04:21:54.861Z,91.17
2017-08-09T04:24:22.470Z,90.97
2017-08-09T04:26:50.186Z,91.10
2017-08-09T04:29:17.801Z,91.52
2017-08-09T04:31:45.428Z,91.60
2017-08-09T04:34:14.667Z,91.55
2017-08-09T04:36:42.312Z,91.71
2017-08-09T04:39:09.981Z,91.83
2017-08-09T04:41:38.013Z,92.01
2017-08-09T04:44:05.636Z,92.26
2017-08-09T04:46:33.245Z,92.30
2017-08-09T04:49:00.882Z,92.32
2017-08-09T04:51:28.493Z,92.36
2017-08-09T04:53:56.658Z,92.48
2017-08-09T04:56:24.270Z,92.09
2017-08-09T04:58:51.886Z,92.17
2017-08-09T05:01:19.535Z,92.30
2017-08-09T05:03:47.270Z,92.35
2017-08-09T05:06:14.933Z,92.10
2017-08-09T05:08:42.673Z,91.88
2017-08-09T05:11:10.640Z,91.47
2017-08-09T05:13:38.246Z,91.80
2017-08-09T05:16:05.855Z,91.93
2017-08-09T05:18:33.879Z,92.10
2017-08-09T05:21:01.538Z,91.99
2017-08-09T05:23:29.168Z,91.85
2017-08-09T05:25:56.804Z,91.71
2017-08-09T05:28:24.482Z,91.93
2017-08-09T05:30:52.721Z,91.99
2017-08-09T05:33:20.681Z,92.17
2017-08-09T05:35:48.293Z,92.14
2017-08-09T05:38:15.908Z,92.05
2017-08-09T05:40:43.560Z,91.80
2017-08-09T05:45:45.959Z,91.06
2017-08-09T05:48:13.718Z,90.71
2017-08-09T05:50:41.343Z,90.62
2017-08-09T05:53:08.992Z,90.37
2017-08-09T05:55:36.632Z,90.12
2017-08-09T05:58:04.286Z,89.57
2017-08-09T06:00:31.934Z,89.50
2017-08-09T06:02:59.575Z,89.71
2017-08-09T06:05:27.187Z,89.99
2017-08-09T06:07:54.794Z,90.17
2017-08-09T06:10:22.437Z,90.19
2017-08-09T06:12:50.064Z,90.23
2017-08-09T06:15:17.725Z,90.37
2017-08-09T06:17:45.463Z,90.44
2017-08-09T06:20:13.523Z,90.38
2017-08-09T06:22:41.137Z,90.30
2017-08-09T06:25:09.156Z,89.56
2017-08-09T06:27:36.779Z,89.19
2017-08-09T06:30:04.407Z,89.17
2017-08-09T06:32:32.049Z,88.64
2017-08-09T06:34:59.684Z,88.44
2017-08-09T06:37:27.836Z,88.78
2017-08-09T06:39:55.467Z,88.83
2017-08-09T06:42:23.594Z,89.00
2017-08-09T06:44:51.236Z,89.32
2017-08-09T06:47:18.849Z,88.81
2017-08-09T06:49:46.506Z,88.69
2017-08-09T06:52:14.132Z,88.73
2017-08-09T06:54:41.773Z,87.98
2017-08-09T06:57:09.493Z,87.90
2017-08-09T06:59:37.139Z,87.73
2017-08-09T07:02:04.751Z,87.59
2017-08-09T07:04:32.703Z,87.38
2017-08-09T07:07:00.334Z,87.07
2017-08-09T07:09:27.963Z,86.64
2017-08-09T07:11:55.615Z,86.17
2017-08-09T07:14:23.247Z,86.29
2017-08-09T07:16:50.869Z,86.72
2017-08-09T07:19:18.478Z,86.48
2017-08-09T07:21:46.519Z,85.75
2017-08-09T07:24:15.290Z,85.50
2017-08-09T07:26:42.900Z,85.28
2017-08-09T07:29:10.592Z,85.45
2017-08-09T07:31:38.209Z,85.22
2017-08-09T07:34:05.988Z,86.09
2017-08-09T07:36:33.730Z,85.89
2017-08-09T07:39:01.587Z,84.67
2017-08-09T07:41:29.208Z,84.57
2017-08-09T07:43:57.249Z,84.06
2017-08-09T07:46:24.859Z,83.49
2017-08-09T07:48:52.465Z,82.29
2017-08-09T07:51:20.090Z,82.95
2017-08-09T07:53:47.889Z,81.91
2017-08-09T07:56:15.552Z,80.37
2017-08-09T07:58:43.254Z,80.35
2017-08-09T08:01:10.944Z,81.89
2017-08-09T08:03:38.537Z,81.08
2017-08-09T08:06:06.176Z,80.27
2017-08-09T08:08:33.837Z,80.71
2017-08-09T08:11:01.469Z,80.88
2017-08-09T08:13:29.534Z,80.07
2017-08-09T08:15:57.258Z,79.71
2017-08-09T08:18:24.871Z,79.05
2017-08-09T08:20:52.593Z,79.41
2017-08-09T08:23:20.183Z,77.63
2017-08-09T08:25:47.910Z,78.67
2017-08-09T08:28:15.517Z,77.97
2017-08-09T08:30:43.192Z,77.09
2017-08-09T08:33:10.803Z,76.92
2017-08-09T08:35:38.735Z,75.78
2017-08-09T08:38:06.364Z,76.96
2017-08-09T08:40:33.988Z,75.78
2017-08-09T08:43:01.634Z,75.11
2017-08-09T08:45:29.259Z,75.03
2017-08-09T08:47:56.913Z,74.29
2017-08-09T08:50:24.760Z,75.04
2017-08-09T08:52:52.694Z,73.93
2017-08-09T08:55:21.095Z,73.45
2017-08-09T08:57:49.841Z,73.55
2017-08-09T09:00:17.484Z,73.40
2017-08-09T09:02:45.102Z,73.57
2017-08-09T09:05:12.732Z,72.67
2017-08-09T09:07:40.538Z,73.63
2017-08-09T09:10:08.329Z,73.48
2017-08-09T09:12:35.941Z,73.03
2017-08-09T09:15:03.579Z,71.60
2017-08-09T09:17:31.280Z,71.63
2017-08-09T09:19:59.187Z,71.94
2017-08-09T09:22:26.810Z,69.34
2017-08-09T09:24:54.412Z,70.23
2017-08-09T09:27:22.047Z,70.59
2017-08-09T09:29:49.696Z,71.96
2017-08-09T09:32:17.338Z,71.06
2017-08-09T09:34:45.013Z,71.91
2017-08-09T09:37:12.958Z,70.88
2017-08-09T09:39:40.567Z,71.16
2017-08-09T09:42:08.356Z,70.08
2017-08-09T09:44:36.477Z,69.68
2017-08-09T09:47:04.083Z,67.36
2017-08-09T09:49:31.719Z,68.43
2017-08-09T09:51:59.364Z,69.67
2017-08-09T09:54:27.221Z,69.62
2017-08-09T09:56:54.856Z,68.27
2017-08-09T09:59:24.234Z,65.83
2017-08-09T10:01:51.846Z,67.18
2017-08-09T10:04:19.437Z,65.85
2017-08-09T10:06:47.085Z,65.74
2017-08-09T10:09:14.767Z,65.35
2017-08-09T10:11:42.436Z,65.80
2017-08-09T10:14:10.179Z,66.53
2017-08-09T10:16:39.136Z,67.20
2017-08-09T10:19:06.882Z,66.08
2017-08-09T10:21:34.505Z,66.34
2017-08-09T10:24:02.244Z,65.70
2017-08-09T10:26:30.844Z,66.28
2017-08-09T10:28:58.484Z,65.09
2017-08-09T10:31:26.275Z,65.83
2017-08-09T10:33:53.879Z,66.62
2017-08-09T10:36:21.536Z,67.13
2017-08-09T10:38:49.249Z,67.49
2017-08-09T10:41:16.912Z,67.72
2017-08-09T10:43:45.926Z,67.95
2017-08-09T10:46:13.967Z,65.89
2017-08-09T10:48:41.586Z,65.36
2017-08-09T10:51:09.177Z,65.41
2017-08-09T10:53:36.904Z,65.12
2017-08-09T10:56:04.542Z,65.67
2017-08-09T10:58:32.295Z,66.30
2017-08-09T11:01:00.060Z,65.11
2017-08-09T11:03:28.328Z,64.60
2017-08-09T11:05:56.016Z,65.83
2017-08-09T11:08:23.771Z,62.80
2017-08-09T11:10:51.419Z,62.51
2017-08-09T11:13:19.043Z,65.42
2017-08-09T11:15:46.705Z,64.94
2017-08-09T11:18:14.352Z,63.07
2017-08-09T11:20:42.372Z,63.26
2017-08-09T11:23:10.012Z,63.06
2017-08-09T11:25:37.664Z,63.89
2017-08-09T11:28:05.319Z,61.72
2017-08-09T11:30:32.927Z,64.86
2017-08-09T11:33:02.224Z,64.00
2017-08-09T11:35:29.928Z,60.63
2017-08-09T11:37:57.939Z,61.55
2017-08-09T11:40:26.942Z,63.29
2017-08-09T11:42:54.622Z,62.61
2017-08-09T11:45:22.257Z,63.30
2017-08-09T11:47:49.871Z,62.98
2017-08-09T11:50:17.523Z,63.48
2017-08-09T11:52:45.256Z,63.60
2017-08-09T11:55:13.619Z,62.34
2017-08-09T11:57:41.216Z,61.58
2017-08-09T12:00:08.826Z,61.26
2017-08-09T12:02:36.480Z,61.29
2017-08-09T12:05:04.055Z,60.78
2017-08-09T12:07:31.701Z,60.69
2017-08-09T12:09:59.298Z,59.49
2017-08-09T12:12:27.002Z,59.87
2017-08-09T12:14:54.634Z,60.99
2017-08-09T12:17:22.680Z,60.43
2017-08-09T12:19:50.358Z,60.55
2017-08-09T12:22:17.995Z,60.17
2017-08-09T12:24:45.796Z,59.97
2017-08-09T12:27:13.436Z,61.13
2017-08-09T12:29:41.075Z,61.68
2017-08-09T12:32:09.353Z,60.95
2017-08-09T12:34:37.074Z,62.16
2017-08-09T12:37:04.714Z,62.09
2017-08-09T12:39:32.335Z,59.77
2017-08-09T12:42:00.942Z,60.75
2017-08-09T12:44:28.579Z,61.47
2017-08-09T12:46:56.561Z,59.95
2017-08-09T12:49:24.688Z,59.77
2017-08-09T12:51:52.338Z,59.19
2017-08-09T12:54:20.155Z,60.57
2017-08-09T12:56:47.801Z,60.32
2017-08-09T12:59:15.720Z,57.90
2017-08-09T13:01:43.349Z,60.88
2017-08-09T13:04:11.337Z,59.40
2017-08-09T13:06:38.942Z,59.64
2017-08-09T13:09:06.604Z,58.98
2017-08-09T13:11:35.416Z,60.72
2017-08-09T13:14:03.515Z,57.42
2017-08-09T13:16:31.491Z,56.56
2017-08-09T13:18:59.130Z,57.42
2017-08-09T13:21:27.851Z,58.19
2017-08-09T13:23:55.508Z,59.40
2017-08-09T13:26:23.147Z,57.89
2017-08-09T13:28:50.829Z,57.24
2017-08-09T13:31:18.462Z,58.60
2017-08-09T13:33:46.461Z,60.62
2017-08-09T13:36:14.086Z,59.78
2017-08-09T13:38:41.721Z,56.43
2017-08-09T13:41:09.384Z,58.17
2017-08-09T13:43:37.023Z,56.92
2017-08-09T13:46:04.669Z,57.25
2017-08-09T13:48:32.277Z,58.71
2017-08-09T13:51:00.181Z,57.42
2017-08-09T13:53:27.800Z,57.47
2017-08-09T13:55:56.413Z,57.37
2017-08-09T13:58:24.081Z,56.14
2017-08-09T14:00:51.810Z,56.53
2017-08-09T14:03:19.588Z,56.22
2017-08-09T14:05:47.188Z,53.72
2017-08-09T14:08:15.191Z,54.67
2017-08-09T14:10:42.816Z,55.24
2017-08-09T14:13:10.458Z,56.43
2017-08-09T14:15:38.119Z,53.00
2017-08-09T14:18:05.786Z,55.60
2017-08-09T14:20:33.412Z,54.77
2017-08-09T14:23:01.103Z,54.51
2017-08-09T14:25:28.823Z,52.80
2017-08-09T14:27:56.447Z,51.42
2017-08-09T14:30:24.488Z,50.48
2017-08-09T14:32:52.091Z,50.94
2017-08-09T14:35:19.889Z,49.15
2017-08-09T14:37:47.976Z,48.42
2017-08-09T14:40:15.627Z,47.56
2017-08-09T14:42:43.304Z,47.44
2017-08-09T14:45:10.930Z,48.06
2017-08-09T14:47:38.662Z,46.85
2017-08-09T14:50:06.293Z,46.48
2017-08-09T14:52:33.947Z,48.42
2017-08-09T14:55:01.576Z,48.63
2017-08-09T14:57:29.268Z,48.43
2017-08-09T14:59:56.922Z,46.10
2017-08-09T15:02:24.963Z,47.14
2017-08-09T15:04:52.625Z,45.87
2017-08-09T15:07:20.262Z,46.39
2017-08-09T15:09:48.433Z,45.13
2017-08-09T15:12:16.047Z,45.88
2017-08-09T15:14:43.816Z,46.38
2017-08-09T15:17:11.600Z,48.57
2017-08-09T15:19:39.794Z,49.31
2017-08-09T15:22:08.546Z,46.93
2017-08-09T15:24:36.172Z,45.10
2017-08-09T15:27:03.846Z,44.23
2017-08-09T15:29:31.483Z,44.29
2017-08-09T15:31:59.682Z,44.87
2017-08-09T15:34:27.619Z,45.04
2017-08-09T15:36:55.382Z,46.13
2017-08-09T15:39:22.998Z,45.71
2017-08-09T15:41:51.055Z,47.95
2017-08-09T15:44:18.685Z,47.20
2017-08-09T15:46:46.338Z,47.76
2017-08-09T15:49:13.978Z,47.93
2017-08-09T15:51:41.611Z,48.14
2017-08-09T15:54:09.280Z,49.12
2017-08-09T15:56:36.925Z,48.85
2017-08-09T15:59:04.595Z,47.92
2017-08-09T16:01:32.212Z,49.57
2017-08-09T16:03:59.835Z,51.21
2017-08-09T16:06:27.462Z,48.53
2017-08-09T16:08:57.733Z,49.14
2017-08-09T16:11:25.418Z,48.56
2017-08-09T16:13:53.239Z,49.57
2017-08-09T16:16:20.989Z,49.33
2017-08-09T16:18:48.668Z,52.68
2017-08-09T16:21:16.324Z,51.59
2017-08-09T16:23:45.159Z,51.08
2017-08-09T16:26:12.821Z,51.76
2017-08-09T16:28:40.532Z,51.71
2017-08-09T16:31:08.460Z,52.83
2017-08-09T16:33:36.083Z,53.71
2017-08-09T16:36:04.142Z,51.92
2017-08-09T16:38:31.798Z,53.54
2017-08-09T16:40:59.415Z,53.66
2017-08-09T16:43:27.255Z,53.56
2017-08-09T16:45:54.872Z,54.74
2017-08-09T16:48:22.521Z,54.16
2017-08-09T16:50:50.152Z,55.44
2017-08-09T16:53:17.812Z,55.70
2017-08-09T16:55:46.355Z,55.90
2017-08-09T16:58:14.016Z,56.02
2017-08-09T17:00:41.659Z,56.30
2017-08-09T17:03:09.601Z,56.93
2017-08-09T17:05:37.239Z,56.43
2017-08-09T17:08:06.256Z,56.74
2017-08-09T17:10:33.922Z,57.54
2017-08-09T17:13:01.564Z,57.80
2017-08-09T17:15:29.631Z,57.84
2017-08-09T17:17:57.274Z,57.01
2017-08-09T17:20:25.060Z,56.75
2017-08-09T17:22:53.305Z,57.64
2017-08-09T17:25:21.015Z,57.70
2017-08-09T17:27:48.741Z,57.94
2017-08-09T17:30:16.391Z,58.06
2017-08-09T17:32:45.413Z,58.45
2017-08-09T17:35:27.031Z,58.93
2017-08-09T17:37:54.753Z,59.62
2017-08-09T17:40:23.786Z,59.60
2017-08-09T17:42:51.418Z,59.89
2017-08-09T17:45:19.593Z,60.40
2017-08-09T17:47:48.445Z,60.78
2017-08-09T17:50:16.060Z,60.76
2017-08-09T17:52:43.931Z,60.77
2017-08-09T17:55:11.987Z,60.03
2017-08-09T17:57:41.160Z,60.76
2017-08-09T18:00:12.150Z,60.64
2017-08-09T18:02:41.404Z,61.23
2017-08-09T18:05:09.012Z,61.07
2017-08-09T18:07:37.700Z,61.15
2017-08-09T18:10:06.827Z,61.64
2017-08-09T18:12:34.475Z,62.59
2017-08-09T18:15:02.203Z,62.33
2017-08-09T18:17:31.302Z,62.11
2017-08-09T18:20:00.237Z,62.15
2017-08-09T18:22:29.052Z,62.71
2017-08-09T18:24:57.855Z,62.73
2017-08-09T18:27:25.522Z,62.79
2017-08-09T18:29:54.451Z,62.99
2017-08-09T18:32:22.189Z,62.66
2017-08-09T18:34:50.075Z,62.76
2017-08-09T18:37:19.269Z,63.38
2017-08-09T18:39:46.906Z,63.04
2017-08-09T18:42:14.545Z,63.29
2017-08-09T18:44:43.285Z,63.80
2017-08-09T18:47:11.291Z,64.04
2017-08-09T18:49:40.558Z,63.71
2017-08-09T18:52:09.577Z,63.70
2017-08-09T18:54:38.338Z,63.59
2017-08-09T18:57:08.180Z,64.07
2017-08-09T18:59:35.819Z,64.82
2017-08-09T19:02:04.473Z,65.35
2017-08-09T19:04:32.735Z,65.69
2017-08-09T19:07:01.607Z,65.59
2017-08-09T19:09:29.684Z,65.83
2017-08-09T19:11:57.389Z,66.43
2017-08-09T19:14:25.545Z,66.63
2017-08-09T19:16:53.167Z,66.61
2017-08-09T19:19:21.983Z,66.81
2017-08-09T19:21:49.841Z,67.25
2017-08-09T19:24:17.484Z,67.58
2017-08-09T19:26:45.125Z,67.58
2017-08-09T19:29:12.844Z,67.53
2017-08-09T19:31:40.482Z,67.76
2017-08-09T19:34:08.124Z,67.40
2017-08-09T19:36:35.893Z,67.04
2017-08-09T19:39:03.557Z,67.28
2017-08-09T19:41:31.544Z,67.58
2017-08-09T19:44:02.139Z,67.60
2017-08-09T19:46:33.083Z,67.35
2017-08-09T19:49:00.835Z,67.48
2017-08-09T19:51:28.465Z,68.84
2017-08-09T19:53:56.228Z,70.11
2017-08-09T19:56:23.946Z,70.20
2017-08-09T19:58:51.637Z,69.83
2017-08-09T20:01:19.275Z,70.44
2017-08-09T20:03:46.967Z,69.53
2017-08-09T20:06:14.605Z,69.80
2017-08-09T20:08:42.308Z,69.42
2017-08-09T20:11:10.004Z,69.48
2017-08-09T20:13:37.634Z,68.75
2017-08-09T20:16:05.341Z,68.93
2017-08-09T20:18:33.237Z,68.58
2017-08-09T20:21:00.871Z,68.13
2017-08-09T20:23:28.496Z,68.03
2017-08-09T20:25:56.158Z,67.87
2017-08-09T20:28:23.779Z,67.92
2017-08-09T20:30:52.682Z,67.98
2017-08-09T20:33:20.305Z,68.40
2017-08-09T20:35:48.018Z,68.24
2017-08-09T20:38:15.640Z,68.85
2017-08-09T20:40:43.297Z,69.51
2017-08-09T20:43:10.901Z,69.92
2017-08-09T20:45:38.844Z,70.39
2017-08-09T20:48:06.455Z,70.32
2017-08-09T20:50:34.077Z,70.05
2017-08-09T20:53:01.884Z,69.41
2017-08-09T20:55:29.540Z,69.76
2017-08-09T20:57:57.186Z,68.92
2017-08-09T21:00:24.785Z,69.61
2017-08-09T21:02:52.432Z,69.44
2017-08-09T21:05:20.045Z,69.57
2017-08-09T21:07:47.708Z,69.82
2017-08-09T21:10:15.504Z,69.68
2017-08-09T21:12:43.539Z,70.13
2017-08-09T21:15:11.172Z,70.04
2017-08-09T21:17:38.768Z,69.65
2017-08-09T21:20:06.446Z,70.47
2017-08-09T21:22:34.061Z,70.33
2017-08-09T21:25:01.695Z,70.29
2017-08-09T21:27:29.310Z,69.84
2017-08-09T21:29:56.937Z,70.07
2017-08-09T21:32:24.724Z,71.12
2017-08-09T21:34:52.361Z,71.28
2017-08-09T21:37:19.974Z,71.42
2017-08-09T21:39:48.033Z,71.27
2017-08-09T21:42:15.631Z,71.24
2017-08-09T21:44:43.230Z,71.05
2017-08-09T21:47:10.875Z,71.33
2017-08-09T21:49:38.494Z,71.21
2017-08-09T21:52:06.136Z,71.24
2017-08-09T21:54:33.762Z,71.92
2017-08-09T21:57:01.404Z,72.08
2017-08-09T21:59:29.010Z,72.15
2017-08-09T22:01:56.649Z,72.35
2017-08-09T22:04:24.256Z,72.16
2017-08-09T22:06:51.912Z,72.30
2017-08-09T22:09:19.536Z,72.62
2017-08-09T22:11:47.644Z,72.67
2017-08-09T22:14:15.268Z,72.98
2017-08-09T22:16:42.880Z,73.05
2017-08-09T22:19:10.620Z,73.66
2017-08-09T22:21:38.230Z,73.78
2017-08-09T22:24:05.862Z,74.10
2017-08-09T22:26:33.487Z,74.74
2017-08-09T22:29:01.145Z,74.74
2017-08-09T22:31:28.813Z,74.65
2017-08-09T22:33:56.425Z,74.23
2017-08-09T22:36:24.062Z,74.93
2017-08-09T22:38:52.173Z,75.26
2017-08-09T22:41:19.784Z,75.15
2017-08-09T22:43:47.390Z,75.56
2017-08-09T22:46:15.031Z,75.82
2017-08-09T22:48:42.647Z,75.96
2017-08-09T22:51:10.315Z,75.87
2017-08-09T22:53:37.924Z,76.33
2017-08-09T22:56:06.524Z,76.14
2017-08-09T22:58:34.137Z,76.36
2017-08-09T23:01:01.844Z,76.47
2017-08-09T23:03:29.467Z,76.70
2017-08-09T23:05:57.483Z,76.07
2017-08-09T23:08:25.068Z,75.84
2017-08-09T23:10:52.737Z,76.16
2017-08-09T23:13:20.374Z,74.98
2017-08-09T23:15:47.998Z,75.34
2017-08-09T23:18:15.657Z,75.04
2017-08-09T23:20:43.314Z,75.00
2017-08-09T23:23:11.565Z,75.41
2017-08-09T23:25:39.284Z,75.60
2017-08-09T23:28:06.914Z,75.35
2017-08-09T23:30:34.521Z,75.32
2017-08-09T23:33:02.527Z,75.14
2017-08-09T23:35:30.248Z,75.01
2017-08-09T23:37:57.879Z,75.26
2017-08-09T23:40:25.672Z,74.88
2017-08-09T23:42:53.368Z,74.94
2017-08-09T23:45:20.992Z,75.29
2017-08-09T23:47:48.616Z,75.06
2017-08-09T23:50:16.246Z,75.14
2017-08-09T23:52:43.850Z,75.33
2017-08-09T23:55:11.471Z,74.61
2017-08-09T23:57:39.090Z,74.33
